Chromo, Colorado
Current Conditions -  °F | °C
As of 8:55 AM on Thursday 27 Nov 2014 (Local Time) from KPSO Reporting Station
Clear Clear  
Wind Chill: 35°   Ceiling: Unl
Heat Index: 35°   Visibility: 10mi
Dew Point: 19°   Wind: 0mph
Humidity: 52%   Direction: NA
Pressure: 30.52"   Gusts: NA
Location:  37.04°N, 106.83°W
Report Text: KPSO 271555Z AUTO 00000KT 10SM CLR 02/M07 A3052 RMK AO2 T00161073
Loading
Personal Weather Stations






























Interactive Weather Map New forecast layout! Learn more

10-Day Weather Forecast

Advertisements
Track Severe Weather on mobile